createdAt,value
2017-06-03T00:00:58.794Z,49
2017-06-03T00:02:01.936Z,49
2017-06-03T00:03:04.782Z,48.5
2017-06-03T00:04:07.628Z,48.7
2017-06-03T00:05:10.471Z,49
2017-06-03T00:06:13.179Z,48.2
2017-06-03T00:07:16.144Z,47.7
2017-06-03T00:08:18.855Z,48.4
2017-06-03T00:09:21.725Z,48
2017-06-03T00:10:24.568Z,48.1
2017-06-03T00:11:27.415Z,48.1
2017-06-03T00:12:30.512Z,48
2017-06-03T00:13:33.397Z,47.5
2017-06-03T00:14:35.738Z,47.3
2017-06-03T00:15:38.603Z,47.4
2017-06-03T00:16:41.455Z,47.5
2017-06-03T00:17:44.553Z,47.6
2017-06-03T00:18:47.267Z,47.9
2017-06-03T00:19:50.115Z,48
2017-06-03T00:20:52.963Z,47.9
2017-06-03T00:22:58.967Z,48.1
2017-06-03T00:24:01.306Z,47.6
2017-06-03T00:25:04.152Z,47.6
2017-06-03T00:26:07.020Z,47.6
2017-06-03T00:27:09.865Z,47.3
2017-06-03T00:28:12.967Z,47.6
2017-06-03T00:29:15.678Z,47.6
2017-06-03T00:30:18.521Z,47.9
2017-06-03T00:31:21.227Z,47.8
2017-06-03T00:32:24.073Z,47.7
2017-06-03T00:33:27.171Z,48.2
2017-06-03T00:34:30.014Z,48.1
2017-06-03T00:35:32.855Z,48.2
2017-06-03T00:36:35.695Z,48.4
2017-06-03T00:37:38.537Z,48.5
2017-06-03T00:38:41.175Z,48.5
2017-06-03T00:39:43.884Z,48.4
2017-06-03T00:40:46.593Z,48.5
2017-06-03T00:42:52.345Z,48.9
2017-06-03T00:43:55.439Z,48.8
2017-06-03T00:44:58.279Z,49.1
2017-06-03T00:46:01.123Z,48.6
2017-06-03T00:47:03.963Z,49.5
2017-06-03T00:48:06.805Z,50
2017-06-03T00:49:09.766Z,49.3
2017-06-03T00:50:12.112Z,49.8
2017-06-03T00:51:14.957Z,49.5
2017-06-03T00:52:17.805Z,49.1
2017-06-03T00:53:20.649Z,49.7
2017-06-03T00:54:23.744Z,49.5
2017-06-03T00:55:26.588Z,50
2017-06-03T00:56:29.998Z,50.8
2017-06-03T00:57:32.335Z,52.2
2017-06-03T00:58:35.045Z,52.5
2017-06-03T00:59:38.144Z,52.3
2017-06-03T01:00:40.510Z,53.1
2017-06-03T01:01:43.411Z,54.1
2017-06-03T01:02:46.251Z,53.8
2017-06-03T01:03:48.961Z,52.9
2017-06-03T01:04:52.054Z,56.5
2017-06-03T01:05:54.771Z,56.5
2017-06-03T01:06:57.618Z,57.9
2017-06-03T01:08:00.463Z,56.7
2017-06-03T01:09:03.310Z,56.9
2017-06-03T01:10:06.333Z,56.7
2017-06-03T01:11:08.537Z,58.2
2017-06-03T01:12:11.380Z,57.6
2017-06-03T01:13:14.230Z,57.9
2017-06-03T01:14:16.999Z,59.2
2017-06-03T01:15:20.093Z,58.9
2017-06-03T01:16:22.984Z,59.5
2017-06-03T01:17:25.328Z,59
2017-06-03T01:18:28.404Z,59.7
2017-06-03T01:19:31.246Z,58.4
2017-06-03T01:20:34.341Z,59
2017-06-03T01:21:36.685Z,57.1
2017-06-03T01:22:39.531Z,57.6
2017-06-03T01:23:42.369Z,57
2017-06-03T01:24:45.213Z,56.2
2017-06-03T01:25:48.359Z,56.4
2017-06-03T01:26:50.695Z,55.6
2017-06-03T01:27:53.536Z,55.9
2017-06-03T01:28:56.385Z,55.7
2017-06-03T01:29:59.091Z,54.9
2017-06-03T01:31:02.094Z,53.4
2017-06-03T01:32:04.805Z,54.6
2017-06-03T01:33:07.514Z,53.9
2017-06-03T01:34:10.352Z,55.2
2017-06-03T01:35:13.197Z,54.9
2017-06-03T01:36:16.285Z,54
2017-06-03T01:37:18.622Z,54.6
2017-06-03T01:38:21.329Z,54.9
2017-06-03T01:39:24.170Z,52.3
2017-06-03T01:40:26.876Z,54.6
2017-06-03T01:41:29.974Z,54.4
2017-06-03T01:42:32.684Z,54.9
2017-06-03T01:43:35.525Z,54.2
2017-06-03T01:44:38.373Z,54.1
2017-06-03T01:45:41.217Z,54
2017-06-03T01:46:44.342Z,54.6
2017-06-03T01:47:46.682Z,54.6
2017-06-03T01:48:49.542Z,54.4
2017-06-03T01:49:52.389Z,54.6
2017-06-03T01:50:55.230Z,54.1
2017-06-03T01:53:00.803Z,54.3
2017-06-03T01:54:03.646Z,52.9
2017-06-03T01:55:06.493Z,52.9
2017-06-03T01:56:09.334Z,53.5
2017-06-03T01:57:12.044Z,53.3
2017-06-03T01:58:15.196Z,53.4
2017-06-03T01:59:17.542Z,53.7
2017-06-03T02:00:20.382Z,53.4
2017-06-03T02:01:23.231Z,53
2017-06-03T02:02:26.072Z,52.8
2017-06-03T02:03:29.165Z,52.9
2017-06-03T02:04:31.497Z,53
2017-06-03T02:05:34.339Z,53.2
2017-06-03T02:06:37.185Z,53
2017-06-03T02:07:40.024Z,53.7
2017-06-03T02:08:42.889Z,53.5
2017-06-03T02:09:45.730Z,53.8
2017-06-03T02:10:48.574Z,53.6
2017-06-03T02:12:53.827Z,53.1
2017-06-03T02:13:56.922Z,52.8
2017-06-03T02:16:02.177Z,53.9
2017-06-03T02:17:05.019Z,54.6
2017-06-03T02:18:07.860Z,55.9
2017-06-03T02:19:11.188Z,55.7
2017-06-03T02:20:13.896Z,56.4
2017-06-03T02:21:16.262Z,57.4
2017-06-03T02:22:19.105Z,57.7
2017-06-03T02:23:21.953Z,58.5
2017-06-03T02:24:24.912Z,59.8
2017-06-03T02:25:27.754Z,59.7
2017-06-03T02:26:30.600Z,59.3
2017-06-03T02:27:33.444Z,60.8
2017-06-03T02:28:36.285Z,61.4
2017-06-03T02:29:38.873Z,61.9
2017-06-03T02:30:41.738Z,63.4
2017-06-03T02:31:44.587Z,62.5
2017-06-03T02:32:47.998Z,61.9
2017-06-03T02:33:49.865Z,62.7
2017-06-03T02:34:52.968Z,63.2
2017-06-03T02:35:55.309Z,64.1
2017-06-03T02:36:58.019Z,65.5
2017-06-03T02:38:01.231Z,64.8
2017-06-03T02:39:03.891Z,65.6
2017-06-03T02:40:06.858Z,66
2017-06-03T02:41:09.198Z,66.6
2017-06-03T02:42:11.920Z,66.4
2017-06-03T02:43:14.762Z,66.8
2017-06-03T02:44:17.602Z,67.8
2017-06-03T02:45:20.700Z,65.9
2017-06-03T02:46:23.541Z,65.9
2017-06-03T02:47:25.884Z,67.1
2017-06-03T02:48:28.722Z,67.7
2017-06-03T02:49:31.568Z,66.6
2017-06-03T02:50:34.662Z,68.9
2017-06-03T02:51:37.004Z,68.6
2017-06-03T02:52:39.715Z,68.2
2017-06-03T02:53:42.557Z,68.2
2017-06-03T02:54:45.395Z,68.2
2017-06-03T02:55:48.356Z,68.1
2017-06-03T02:56:51.199Z,68
2017-06-03T02:57:53.539Z,68.4
2017-06-03T02:58:56.377Z,67.3
2017-06-03T02:59:59.225Z,68.1
2017-06-03T03:01:02.369Z,67.8
2017-06-03T03:02:04.705Z,67.5
2017-06-03T03:03:07.547Z,67.7
2017-06-03T03:04:10.389Z,69.4
2017-06-03T03:05:13.235Z,68.8
2017-06-03T03:06:16.196Z,68.2
2017-06-03T03:07:18.532Z,68.7
2017-06-03T03:08:21.375Z,67.2
2017-06-03T03:09:24.081Z,68.5
2017-06-03T03:10:26.931Z,67.4
2017-06-03T03:12:32.960Z,66.5
2017-06-03T03:13:35.296Z,67.5
2017-06-03T03:14:38.140Z,66.6
2017-06-03T03:15:40.719Z,66.3
2017-06-03T03:16:43.566Z,64.8
2017-06-03T03:17:46.659Z,64.9
2017-06-03T03:18:49.005Z,65.7
2017-06-03T03:19:51.851Z,65.9
2017-06-03T03:20:55.270Z,65.6
2017-06-03T03:21:57.609Z,66.6
2017-06-03T03:23:00.200Z,65.7
2017-06-03T03:24:03.043Z,66.3
2017-06-03T03:25:05.619Z,66.7
2017-06-03T03:26:08.331Z,65.6
2017-06-03T03:27:11.174Z,66.5
2017-06-03T03:28:14.270Z,66.6
2017-06-03T03:29:16.609Z,66.3
2017-06-03T03:30:20.017Z,65.6
2017-06-03T03:31:22.357Z,64.9
2017-06-03T03:32:25.068Z,65.9
2017-06-03T03:33:28.163Z,64.9
2017-06-03T03:34:30.499Z,65.8
2017-06-03T03:35:33.345Z,66.1
2017-06-03T03:36:36.183Z,65
2017-06-03T03:37:39.041Z,65.2
2017-06-03T03:38:41.498Z,65.8
2017-06-03T03:39:44.592Z,66.8
2017-06-03T03:40:46.933Z,65.8
2017-06-03T03:41:49.774Z,64.8
2017-06-03T03:42:52.618Z,66.7
2017-06-03T03:43:55.711Z,67.1
2017-06-03T03:44:58.061Z,66.6
2017-06-03T03:46:00.960Z,66.5
2017-06-03T03:47:03.803Z,65.9
2017-06-03T03:48:06.645Z,67
2017-06-03T03:49:09.741Z,68.6
2017-06-03T03:50:12.637Z,68.6
2017-06-03T03:51:14.978Z,70.1
2017-06-03T03:52:17.314Z,70.4
2017-06-03T03:53:20.172Z,70
2017-06-03T03:54:23.267Z,70.7
2017-06-03T03:55:25.603Z,70.5
2017-06-03T03:56:28.447Z,70.3
2017-06-03T03:57:31.290Z,70.2
2017-06-03T03:58:34.137Z,70
2017-06-03T03:59:37.288Z,68
2017-06-03T04:00:39.630Z,69.1
2017-06-03T04:01:42.473Z,67.7
2017-06-03T04:02:45.313Z,68.4
2017-06-03T04:03:47.662Z,71
2017-06-03T04:04:50.759Z,72
2017-06-03T04:05:53.095Z,71.8
2017-06-03T04:06:55.935Z,72.9
2017-06-03T04:07:58.775Z,72.9
2017-06-03T04:09:01.620Z,75.3
2017-06-03T04:10:04.728Z,76
2017-06-03T04:11:06.935Z,76.8
2017-06-03T04:12:09.645Z,77.4
2017-06-03T04:13:12.353Z,76.6
2017-06-03T04:14:15.194Z,76.1
2017-06-03T04:15:18.285Z,77
2017-06-03T04:16:20.622Z,79
2017-06-03T04:17:23.469Z,77.6
2017-06-03T04:18:26.313Z,78.5
2017-06-03T04:19:29.150Z,78.6
2017-06-03T04:20:32.247Z,78.2
2017-06-03T04:21:34.451Z,79.1
2017-06-03T04:22:37.161Z,79
2017-06-03T04:23:40.002Z,79.3
2017-06-03T04:24:42.709Z,79.6
2017-06-03T04:25:45.808Z,78.8
2017-06-03T04:26:48.143Z,79.4
2017-06-03T04:27:50.982Z,79.8
2017-06-03T04:28:53.823Z,80.1
2017-06-03T04:29:56.670Z,80.8
2017-06-03T04:32:02.171Z,80.9
2017-06-03T04:33:04.534Z,80.7
2017-06-03T04:34:07.379Z,80.8
2017-06-03T04:35:10.089Z,81.7
2017-06-03T04:36:12.932Z,81.1
2017-06-03T04:38:18.938Z,81.2
2017-06-03T04:39:21.273Z,81.7
2017-06-03T04:40:24.112Z,81.7
2017-06-03T04:41:26.321Z,81.1
2017-06-03T04:42:29.531Z,81.7
2017-06-03T04:43:32.629Z,80.8
2017-06-03T04:44:34.969Z,80.8
2017-06-03T04:45:38.224Z,80.4
2017-06-03T04:46:40.431Z,80.6
2017-06-03T04:47:43.270Z,80.2
2017-06-03T04:48:46.101Z,80.1
2017-06-03T04:49:48.440Z,79.8
2017-06-03T04:50:51.148Z,80.4
2017-06-03T04:51:53.990Z,79.3
2017-06-03T04:52:56.696Z,79.2
2017-06-03T04:53:59.656Z,79.3
2017-06-03T04:55:02.500Z,79.2
2017-06-03T04:56:05.219Z,78.9
2017-06-03T04:57:07.934Z,79.6
2017-06-03T04:58:10.648Z,78.9
2017-06-03T04:59:13.746Z,78.2
2017-06-03T05:00:16.086Z,78.4
2017-06-03T05:01:18.661Z,78.7
2017-06-03T05:02:21.510Z,78.7
2017-06-03T05:03:24.354Z,79
2017-06-03T05:04:27.450Z,78.9
2017-06-03T05:05:29.830Z,79.4
2017-06-03T05:06:32.668Z,79.2
2017-06-03T05:07:35.013Z,78.6
2017-06-03T05:08:37.853Z,79.4
2017-06-03T05:09:40.955Z,79.6
2017-06-03T05:10:43.298Z,79.4
2017-06-03T05:11:46.143Z,79.1
2017-06-03T05:12:48.985Z,80.1
2017-06-03T05:13:51.824Z,79.3
2017-06-03T05:14:54.788Z,78.9
2017-06-03T05:15:57.126Z,79.9
2017-06-03T05:16:59.971Z,79.9
2017-06-03T05:18:02.813Z,78.8
2017-06-03T05:19:05.152Z,78.9
2017-06-03T05:20:08.168Z,79.2
2017-06-03T05:21:10.741Z,79.7
2017-06-03T05:22:13.590Z,79.1
2017-06-03T05:23:16.439Z,78.5
2017-06-03T05:24:19.286Z,79.3
2017-06-03T05:25:21.741Z,78.3
2017-06-03T05:26:24.587Z,79.8
2017-06-03T05:27:27.431Z,80.7
2017-06-03T05:28:30.204Z,81.2
2017-06-03T05:29:32.539Z,80.8
2017-06-03T05:30:36.004Z,80.9
2017-06-03T05:31:38.340Z,80.8
2017-06-03T05:32:41.183Z,79.8
2017-06-03T05:33:43.522Z,79.3
2017-06-03T05:34:46.371Z,79.7
2017-06-03T05:35:50.045Z,80.4
2017-06-03T05:36:51.885Z,81.5
2017-06-03T05:37:54.730Z,81.7
2017-06-03T05:38:57.571Z,80.1
2017-06-03T05:40:00.412Z,79.3
2017-06-03T05:41:03.001Z,79.7
2017-06-03T05:42:05.847Z,78.8
2017-06-03T05:43:08.690Z,78.4
2017-06-03T05:44:11.030Z,78.7
2017-06-03T05:45:13.870Z,79.4
2017-06-03T05:46:16.966Z,79.2
2017-06-03T05:47:19.542Z,79.6
2017-06-03T05:48:22.388Z,79.1
2017-06-03T05:49:25.235Z,78.7
2017-06-03T05:51:30.740Z,79.3
2017-06-03T05:52:33.086Z,78.9
2017-06-03T05:53:35.929Z,78.2
2017-06-03T05:54:38.641Z,78.4
2017-06-03T05:55:41.487Z,78.5
2017-06-03T05:56:44.456Z,78.9
2017-06-03T05:57:47.301Z,79.3
2017-06-03T05:58:49.646Z,79.4
2017-06-03T06:00:55.401Z,78.9
2017-06-03T06:01:58.499Z,77.4
2017-06-03T06:03:00.841Z,76.9
2017-06-03T06:04:03.689Z,77.2
2017-06-03T06:05:06.534Z,76.3
2017-06-03T06:06:08.888Z,77.5
2017-06-03T06:07:11.988Z,77.5
2017-06-03T06:08:14.842Z,77.8
2017-06-03T06:09:17.182Z,77
2017-06-03T06:10:20.032Z,76.2
2017-06-03T06:11:22.881Z,76.6
2017-06-03T06:12:26.211Z,77.8
2017-06-03T06:13:28.416Z,77.1
2017-06-03T06:14:31.259Z,76.7
2017-06-03T06:15:34.104Z,77.1
2017-06-03T06:16:36.946Z,76.9
2017-06-03T06:17:40.045Z,74.7
2017-06-03T06:18:42.386Z,75.3
2017-06-03T06:19:45.230Z,73.2
2017-06-03T06:20:48.072Z,73.2
2017-06-03T06:21:50.922Z,74.2
2017-06-03T06:22:54.073Z,74.7
2017-06-03T06:23:56.416Z,73.2
2017-06-03T06:24:58.758Z,74.3
2017-06-03T06:26:01.604Z,73.9
2017-06-03T06:27:04.448Z,72.7
2017-06-03T06:28:07.541Z,73.1
2017-06-03T06:29:09.747Z,73.4
2017-06-03T06:30:13.097Z,74
2017-06-03T06:31:15.306Z,73.4
2017-06-03T06:32:18.517Z,74.8
2017-06-03T06:33:21.613Z,73.6
2017-06-03T06:34:24.186Z,73.7
2017-06-03T06:35:27.029Z,72.8
2017-06-03T06:36:29.391Z,72
2017-06-03T06:37:32.234Z,73.4
2017-06-03T06:38:35.331Z,71.5
2017-06-03T06:39:38.183Z,72.1
2017-06-03T06:40:40.526Z,71.3
2017-06-03T06:41:43.378Z,70.8
2017-06-03T06:42:46.287Z,71.2
2017-06-03T06:43:49.244Z,71.1
2017-06-03T06:44:51.952Z,70.7
2017-06-03T06:46:57.206Z,69.1
2017-06-03T06:48:00.048Z,69.6
2017-06-03T06:49:03.151Z,70.7
2017-06-03T06:50:06.000Z,65.8
2017-06-03T06:51:08.848Z,66.7
2017-06-03T06:52:11.188Z,67.5
2017-06-03T06:53:14.033Z,67.3
2017-06-03T06:54:17.127Z,66.5
2017-06-03T06:55:19.969Z,66.5
2017-06-03T06:56:22.811Z,65
2017-06-03T06:57:25.666Z,66.2
2017-06-03T06:58:28.506Z,64.9
2017-06-03T06:59:31.099Z,66
2017-06-03T07:00:33.949Z,65.9
2017-06-03T07:01:36.789Z,64.9
2017-06-03T07:02:39.631Z,64.9
2017-06-03T07:03:42.474Z,65.3
2017-06-03T07:04:45.572Z,64.9
2017-06-03T07:05:47.911Z,65.1
2017-06-03T07:06:50.757Z,67.1
2017-06-03T07:07:53.599Z,67.6
2017-06-03T07:08:56.441Z,66.7
2017-06-03T07:09:59.587Z,67.5
2017-06-03T07:11:01.930Z,66.7
2017-06-03T07:12:04.772Z,66
2017-06-03T07:13:07.615Z,65.6
2017-06-03T07:14:10.463Z,65
2017-06-03T07:15:13.558Z,64
2017-06-03T07:16:16.262Z,64.5
2017-06-03T07:17:19.104Z,64
2017-06-03T07:18:21.680Z,64.3
2017-06-03T07:19:24.525Z,64.6
2017-06-03T07:20:27.619Z,64.2
2017-06-03T07:21:30.334Z,62.6
2017-06-03T07:22:33.178Z,63.8
2017-06-03T07:23:36.583Z,64.5
2017-06-03T07:24:38.921Z,65.2
2017-06-03T07:25:41.881Z,64.3
2017-06-03T07:26:44.223Z,63.7
2017-06-03T07:27:47.073Z,65
2017-06-03T07:28:49.918Z,63.1
2017-06-03T07:29:52.765Z,65.2
2017-06-03T07:30:55.861Z,65
2017-06-03T07:31:58.703Z,64.4
2017-06-03T07:33:01.546Z,65.4
2017-06-03T07:34:04.256Z,64.4
2017-06-03T07:35:06.839Z,64.4
2017-06-03T07:36:10.440Z,64.2
2017-06-03T07:37:12.786Z,64.6
2017-06-03T07:38:15.635Z,64.9
2017-06-03T07:39:18.338Z,64.1
2017-06-03T07:40:21.550Z,65.1
2017-06-03T07:41:24.648Z,65
2017-06-03T07:42:26.990Z,64
2017-06-03T07:43:29.700Z,64.2
2017-06-03T07:44:32.542Z,63.6
2017-06-03T07:46:38.415Z,64.5
2017-06-03T07:47:41.255Z,64.7
2017-06-03T07:48:44.107Z,64.5
2017-06-03T07:49:46.958Z,64.7
2017-06-03T07:50:49.810Z,64.3
2017-06-03T07:51:52.913Z,64.3
2017-06-03T07:52:55.281Z,64.3
2017-06-03T07:53:58.128Z,63.9
2017-06-03T07:55:01.336Z,62.9
2017-06-03T07:56:03.925Z,62.5
2017-06-03T07:57:07.040Z,63.1
2017-06-03T07:58:09.746Z,62.7
2017-06-03T07:59:12.456Z,62.7
2017-06-03T08:00:15.300Z,62.5
2017-06-03T08:01:18.151Z,60.5
2017-06-03T08:02:21.118Z,61.9
2017-06-03T08:03:23.827Z,60.9
2017-06-03T08:04:26.673Z,61.3
2017-06-03T08:05:29.524Z,61.6
2017-06-03T08:06:32.366Z,60.5
2017-06-03T08:07:35.461Z,59.2
2017-06-03T08:08:38.334Z,58.3
2017-06-03T08:09:41.040Z,60.3
2017-06-03T08:10:43.751Z,60
2017-06-03T08:11:46.963Z,57
2017-06-03T08:12:50.063Z,58.7
2017-06-03T08:13:52.404Z,59.8
2017-06-03T08:14:55.252Z,58.7
2017-06-03T08:15:58.095Z,57.8
2017-06-03T08:17:00.939Z,58
2017-06-03T08:18:04.541Z,56.3
2017-06-03T08:19:06.888Z,56.6
2017-06-03T08:20:09.599Z,57.3
2017-06-03T08:21:12.450Z,57.8
2017-06-03T08:22:15.803Z,58.8
2017-06-03T08:23:18.950Z,58.8
2017-06-03T08:25:24.071Z,60.7
2017-06-03T08:26:27.282Z,59
2017-06-03T08:27:30.126Z,59.3
2017-06-03T08:28:33.222Z,60.2
2017-06-03T08:29:35.455Z,59.5
2017-06-03T08:30:38.802Z,58.5
2017-06-03T08:31:41.643Z,57.9
2017-06-03T08:32:44.490Z,58.9
2017-06-03T08:33:47.589Z,58.8
2017-06-03T08:34:49.932Z,58.6
2017-06-03T08:35:52.777Z,57.7
2017-06-03T08:37:58.904Z,57.5
2017-06-03T08:39:02.011Z,56.9
2017-06-03T08:40:04.352Z,57.2
2017-06-03T08:41:07.702Z,57.5
2017-06-03T08:42:10.482Z,57
2017-06-03T08:43:13.333Z,56.8
2017-06-03T08:44:16.432Z,57.1
2017-06-03T08:45:19.279Z,56.2
2017-06-03T08:46:21.993Z,56.6
2017-06-03T08:47:24.701Z,55.9
2017-06-03T08:48:27.544Z,58
2017-06-03T08:49:31.012Z,57.3
2017-06-03T08:50:33.354Z,57.8
2017-06-03T08:51:36.201Z,58.3
2017-06-03T08:52:39.415Z,58.5
2017-06-03T08:53:42.260Z,59.1
2017-06-03T08:54:45.355Z,59.4
2017-06-03T08:55:48.200Z,59.5
2017-06-03T08:56:51.047Z,59.7
2017-06-03T08:57:53.892Z,59.8
2017-06-03T08:58:56.734Z,60.1
2017-06-03T08:59:59.880Z,60
2017-06-03T09:01:02.222Z,60
2017-06-03T09:02:05.440Z,60.5
2017-06-03T09:03:08.282Z,61.3
2017-06-03T09:04:11.131Z,61.8
2017-06-03T09:05:14.226Z,61.5
2017-06-03T09:06:16.933Z,61
2017-06-03T09:07:19.644Z,61.3
2017-06-03T09:08:22.360Z,63.2
2017-06-03T09:09:25.575Z,63.3
2017-06-03T09:10:28.670Z,65.3
2017-06-03T09:11:31.385Z,64.5
2017-06-03T09:12:34.093Z,66.1
2017-06-03T09:13:36.938Z,65.4
2017-06-03T09:14:39.652Z,65.6
2017-06-03T09:15:43.120Z,66.4
2017-06-03T09:16:45.461Z,67.2
2017-06-03T09:17:48.307Z,67.2
2017-06-03T09:18:51.156Z,68.1
2017-06-03T09:19:54.369Z,69.6
2017-06-03T09:20:57.341Z,71.3
2017-06-03T09:21:59.684Z,69.9
2017-06-03T09:23:02.523Z,70.3
2017-06-03T09:24:05.232Z,69.8
2017-06-03T09:25:08.461Z,70.3
2017-06-03T09:26:11.556Z,70.1
2017-06-03T09:27:13.901Z,69.9
2017-06-03T09:28:16.747Z,70.7
2017-06-03T09:29:19.594Z,70.5
2017-06-03T09:30:22.439Z,69.7
2017-06-03T09:31:25.536Z,70.3
2017-06-03T09:32:28.388Z,70.6
2017-06-03T09:33:31.098Z,71.3
2017-06-03T09:34:33.994Z,70.8
2017-06-03T09:35:36.838Z,70.4
2017-06-03T09:36:39.799Z,71.7
2017-06-03T09:37:42.648Z,71.6
2017-06-03T09:38:45.491Z,71.4
2017-06-03T09:39:48.332Z,71.9
2017-06-03T09:40:51.177Z,70.8
2017-06-03T09:41:54.281Z,70.6
2017-06-03T09:42:56.988Z,70
2017-06-03T09:45:02.747Z,70.2
2017-06-03T09:46:05.324Z,70.7
2017-06-03T09:47:08.296Z,70
2017-06-03T09:48:11.141Z,69.6
2017-06-03T09:49:14.044Z,69.4
2017-06-03T09:50:16.900Z,70.1
2017-06-03T09:51:19.745Z,69.8
2017-06-03T09:52:22.853Z,68.4
2017-06-03T09:53:25.193Z,67.8
2017-06-03T09:54:28.035Z,68.1
2017-06-03T09:55:30.880Z,68.3
2017-06-03T09:56:33.729Z,67.4
2017-06-03T09:57:36.830Z,66.3
2017-06-03T09:58:39.678Z,64.6
2017-06-03T09:59:42.521Z,64.7
2017-06-03T10:00:45.233Z,64.5
2017-06-03T10:01:48.078Z,64
2017-06-03T10:02:51.037Z,64.5
2017-06-03T10:03:53.879Z,63.2
2017-06-03T10:04:56.730Z,62.9
2017-06-03T10:05:59.434Z,62.7
2017-06-03T10:07:02.150Z,61.3
2017-06-03T10:08:05.243Z,61.3
2017-06-03T10:09:08.095Z,61.1
2017-06-03T10:10:10.949Z,60.7
2017-06-03T10:11:13.792Z,61
2017-06-03T10:12:16.639Z,60.5
2017-06-03T10:13:19.790Z,59
2017-06-03T10:14:22.503Z,58.7
2017-06-03T10:15:25.348Z,59
2017-06-03T10:16:28.195Z,59.9
2017-06-03T10:17:31.043Z,59.7
2017-06-03T10:18:34.006Z,57.8
2017-06-03T10:19:36.716Z,59.2
2017-06-03T10:20:39.426Z,58
2017-06-03T10:21:42.275Z,58.4
2017-06-03T10:22:45.489Z,59
2017-06-03T10:23:48.584Z,58.2
2017-06-03T10:24:50.794Z,58.5
2017-06-03T10:26:57.062Z,59
2017-06-03T10:27:59.943Z,58.3
2017-06-03T10:29:03.043Z,57.5
2017-06-03T10:30:05.388Z,56.8
2017-06-03T10:31:08.235Z,57
2017-06-03T10:32:11.590Z,56.6
2017-06-03T10:33:14.439Z,57.5
2017-06-03T10:34:17.535Z,57.7
2017-06-03T10:35:19.874Z,58.2
2017-06-03T10:36:22.590Z,58.4
2017-06-03T10:37:25.803Z,56.6
2017-06-03T10:38:28.645Z,57.4
2017-06-03T10:39:31.791Z,56.6
2017-06-03T10:40:34.634Z,57.2
2017-06-03T10:41:37.478Z,57.4
2017-06-03T10:42:40.324Z,55.8
2017-06-03T10:43:43.093Z,56.8
2017-06-03T10:44:46.190Z,57.6
2017-06-03T10:45:49.036Z,57.5
2017-06-03T10:46:51.881Z,57
2017-06-03T10:47:54.726Z,57.7
2017-06-03T10:48:57.573Z,57
2017-06-03T10:50:00.680Z,58
2017-06-03T10:51:03.395Z,58.3
2017-06-03T10:52:06.240Z,57.4
2017-06-03T10:53:08.875Z,56.6
2017-06-03T10:54:11.950Z,56.7
2017-06-03T10:55:15.056Z,56.8
2017-06-03T10:56:17.897Z,57
2017-06-03T10:57:20.739Z,56.2
2017-06-03T10:58:23.585Z,56.4
2017-06-03T10:59:26.428Z,57.2
2017-06-03T11:00:30.083Z,56.6
2017-06-03T11:01:32.286Z,57
2017-06-03T11:02:35.137Z,54.3
2017-06-03T11:03:37.984Z,55.3
2017-06-03T11:04:41.336Z,55
2017-06-03T11:05:44.303Z,55.9
2017-06-03T11:06:47.142Z,55.3
2017-06-03T11:07:49.986Z,56.3
2017-06-03T11:08:52.831Z,56.4
2017-06-03T11:09:55.679Z,55.7
2017-06-03T11:12:01.699Z,55.2
2017-06-03T11:13:04.552Z,55.5
2017-06-03T11:14:07.399Z,57.1
2017-06-03T11:15:10.111Z,56.5
2017-06-03T11:16:12.958Z,56.3
2017-06-03T11:17:16.481Z,56.8
2017-06-03T11:18:18.820Z,57.3
2017-06-03T11:19:21.666Z,56.5
2017-06-03T11:20:25.015Z,57.2
2017-06-03T11:21:27.860Z,57.2
2017-06-03T11:22:30.958Z,56.4
2017-06-03T11:23:33.176Z,56.2
2017-06-03T11:24:36.526Z,57.1
2017-06-03T11:25:39.369Z,55.6
2017-06-03T11:26:42.087Z,55.6
2017-06-03T11:27:45.688Z,56.5
2017-06-03T11:28:48.030Z,56.7
2017-06-03T11:29:50.874Z,56.2
2017-06-03T11:30:53.720Z,56.5
2017-06-03T11:31:56.938Z,55.6
2017-06-03T11:33:00.033Z,55
2017-06-03T11:34:02.913Z,54.6
2017-06-03T11:35:05.759Z,55
2017-06-03T11:36:08.607Z,55.1
2017-06-03T11:37:11.452Z,55.6
2017-06-03T11:38:14.545Z,55.1
2017-06-03T11:40:20.321Z,52.8
2017-06-03T11:41:23.174Z,53.5
2017-06-03T11:42:26.019Z,54.2
2017-06-03T11:43:28.981Z,53.7
2017-06-03T11:44:31.689Z,53.3
2017-06-03T11:45:34.901Z,53.6
2017-06-03T11:46:37.754Z,52.8
2017-06-03T11:47:40.468Z,53.8
2017-06-03T11:48:43.567Z,53
2017-06-03T11:49:46.436Z,52.4
2017-06-03T11:50:49.282Z,52.9
2017-06-03T11:51:52.056Z,52.6
2017-06-03T11:52:55.407Z,52.7
2017-06-03T11:53:58.559Z,52.1
2017-06-03T11:55:00.897Z,52.7
2017-06-03T11:56:03.743Z,52.8
2017-06-03T11:57:06.971Z,53.6
2017-06-03T11:58:09.548Z,53.8
2017-06-03T12:00:16.072Z,53.6
2017-06-03T12:01:18.418Z,53.8
2017-06-03T12:02:21.263Z,53.9
2017-06-03T12:03:24.616Z,54.6
2017-06-03T12:04:27.459Z,53.2
2017-06-03T12:05:30.555Z,53.5
2017-06-03T12:06:33.269Z,54.2
2017-06-03T12:07:35.977Z,53.6
2017-06-03T12:08:38.824Z,54
2017-06-03T12:09:42.241Z,54.2
2017-06-03T12:10:44.895Z,53.8
2017-06-03T12:11:47.742Z,53.7
2017-06-03T12:12:50.592Z,53.9
2017-06-03T12:13:53.299Z,54.6
2017-06-03T12:14:56.644Z,53.2
2017-06-03T12:15:59.743Z,53.5
2017-06-03T12:17:02.594Z,53.7
2017-06-03T12:18:05.445Z,53.9
2017-06-03T12:19:08.155Z,53.3
2017-06-03T12:20:10.999Z,53.4
2017-06-03T12:21:13.961Z,53.1
2017-06-03T12:22:16.740Z,53.7
2017-06-03T12:23:20.104Z,53.2
2017-06-03T12:24:22.950Z,52.8
2017-06-03T12:25:25.791Z,53.5
2017-06-03T12:26:28.889Z,54.1
2017-06-03T12:27:31.598Z,52.4
2017-06-03T12:29:37.365Z,53.4
2017-06-03T12:30:40.209Z,54.1
2017-06-03T12:31:43.808Z,53.6
2017-06-03T12:32:46.152Z,53.4
2017-06-03T12:33:48.998Z,53.6
2017-06-03T12:34:52.347Z,52.6
2017-06-03T12:35:55.192Z,52.5
2017-06-03T12:36:58.299Z,52.9
2017-06-03T12:38:01.151Z,52.1
2017-06-03T12:39:03.997Z,53.1
2017-06-03T12:40:06.709Z,53.2
2017-06-03T12:41:09.615Z,52.7
2017-06-03T12:42:12.721Z,51.4
2017-06-03T12:43:15.589Z,51.2
2017-06-03T12:44:18.439Z,50.9
2017-06-03T12:45:21.285Z,50.8
2017-06-03T12:46:24.193Z,52.6
2017-06-03T12:47:27.797Z,53.2
2017-06-03T12:48:30.513Z,53.3
2017-06-03T12:49:33.222Z,54.1
2017-06-03T12:50:35.936Z,54.2
2017-06-03T12:51:39.291Z,53.5
2017-06-03T12:52:42.410Z,53.9
2017-06-03T12:53:45.252Z,54
2017-06-03T12:54:48.095Z,53.6
2017-06-03T12:55:50.945Z,52.3
2017-06-03T12:56:53.791Z,52
2017-06-03T12:57:56.752Z,52
2017-06-03T12:58:59.463Z,52.9
2017-06-03T13:00:02.810Z,52.9
2017-06-03T13:01:05.660Z,52.4
2017-06-03T13:02:08.509Z,53
2017-06-03T13:03:11.610Z,53.5
2017-06-03T13:04:14.480Z,54.1
2017-06-03T13:05:17.698Z,54.7
2017-06-03T13:06:20.412Z,53.6
2017-06-03T13:07:23.263Z,53.4
2017-06-03T13:08:26.731Z,52.2
2017-06-03T13:09:29.074Z,52.7
2017-06-03T13:10:32.425Z,51.9
2017-06-03T13:11:35.266Z,52.7
2017-06-03T13:12:38.109Z,49.8
2017-06-03T13:13:41.203Z,51.4
2017-06-03T13:14:43.919Z,48.5
2017-06-03T13:15:46.767Z,49.9
2017-06-03T13:16:50.117Z,53.3
2017-06-03T13:17:52.831Z,50
2017-06-03T13:18:55.925Z,48.5
2017-06-03T13:19:58.766Z,48.2
2017-06-03T13:21:01.611Z,47.7
2017-06-03T13:22:04.830Z,48.1
2017-06-03T13:23:07.677Z,50.8
2017-06-03T13:24:10.638Z,52.3
2017-06-03T13:25:13.418Z,51.9
2017-06-03T13:26:16.769Z,53.1
2017-06-03T13:27:19.614Z,53.6
2017-06-03T13:28:22.455Z,53.9
2017-06-03T13:30:28.469Z,53.9
2017-06-03T13:31:31.048Z,53.7
2017-06-03T13:32:34.263Z,53.9
2017-06-03T13:33:37.111Z,54
2017-06-03T13:34:39.959Z,53.6
2017-06-03T13:35:43.427Z,51.7
2017-06-03T13:36:46.273Z,52.6
2017-06-03T13:37:49.120Z,50.5
2017-06-03T13:38:51.969Z,50.6
2017-06-03T13:39:54.813Z,49.8
2017-06-03T13:40:57.914Z,50.4
2017-06-03T13:42:00.628Z,51.4
2017-06-03T13:43:03.978Z,51.8
2017-06-03T13:44:06.823Z,52.1
2017-06-03T13:45:09.677Z,51.8
2017-06-03T13:46:12.778Z,51.9
2017-06-03T13:47:15.623Z,52.1
2017-06-03T13:48:18.470Z,52
2017-06-03T13:49:21.326Z,52.6
2017-06-03T13:50:24.673Z,53.2
2017-06-03T13:51:27.833Z,54.1
2017-06-03T13:52:30.174Z,55
2017-06-03T13:53:33.526Z,57.7
2017-06-03T13:54:36.370Z,58
2017-06-03T13:55:39.218Z,56.6
2017-06-03T13:56:42.314Z,56.2
2017-06-03T13:57:45.020Z,56.6
2017-06-03T13:58:48.231Z,57.2
2017-06-03T13:59:50.941Z,57.7
2017-06-03T14:00:53.786Z,57.9
2017-06-03T14:01:56.882Z,58.8
2017-06-03T14:02:59.724Z,59.7
2017-06-03T14:04:02.569Z,60.2
2017-06-03T14:05:05.413Z,60.6
2017-06-03T14:06:08.256Z,61.1
2017-06-03T14:07:11.727Z,61.6
2017-06-03T14:08:14.070Z,61.7
2017-06-03T14:09:17.420Z,62.3
2017-06-03T14:10:20.261Z,62.1
2017-06-03T14:11:23.104Z,61.8
2017-06-03T14:12:26.067Z,62
2017-06-03T14:13:28.644Z,62.4
2017-06-03T14:14:31.863Z,62.7
2017-06-03T14:15:34.720Z,63.1
2017-06-03T14:16:37.565Z,61.2
2017-06-03T14:17:40.668Z,61.5
2017-06-03T14:18:43.512Z,61.1
2017-06-03T14:20:49.135Z,59.6
2017-06-03T14:21:51.983Z,59.2
2017-06-03T14:22:54.944Z,59.7
2017-06-03T14:23:58.157Z,59.7
2017-06-03T14:25:00.999Z,60.2